<?xml version="1.0" encoding="UTF-8" standalone="no" ?>
<gpx xmlns="http://www.topografix.com/GPX/1/1" xmlns:xsi="http://www.w3.org/2001/XMLSchema-instance" xsi:schemaLocation="http://www.topografix.com/GPX/1/1 http://www.topografix.com/GPX/1/1/gpx.xsd" version="1.1" creator="VisuGPX - https://www.visugpx.com">
  <metadata>
    <name>Les Saisies-Le Tour du Char du Beurre</name>
    <desc><![CDATA[Carte IGN TOP25 : 3531OT - Megève/Col des Aravis.
Niveau F.
Départ des Saisies.

]]></desc>
  </metadata>
  <trk>
    <name><![CDATA[Les Saisies-Le Tour du Char du Beurre - F]]></name>
    <cmt><![CDATA[Carte IGN TOP25 : 3531OT - Megève/Col des Aravis
Départ des Saisies.]]></cmt>
    <trkseg>
      <trkpt lat="45.76029" lon="6.5338">
        <ele>1657</ele>
        <time>2021-12-27T10:21:36.751Z</time>
      </trkpt>
      <trkpt lat="45.75996" lon="6.5343">
        <ele>1658</ele>
        <time>2021-12-27T10:22:34.372Z</time>
      </trkpt>
      <trkpt lat="45.7599" lon="6.53462">
        <ele>1659</ele>
        <time>2021-12-27T10:23:00.554Z</time>
      </trkpt>
      <trkpt lat="45.75992" lon="6.53478">
        <ele>1660</ele>
        <time>2021-12-27T10:23:13.466Z</time>
      </trkpt>
      <trkpt lat="45.75972" lon="6.53511">
        <ele>1659</ele>
        <time>2021-12-27T10:23:47.268Z</time>
      </trkpt>
      <trkpt lat="45.75945" lon="6.53576">
        <ele>1658</ele>
        <time>2021-12-27T10:24:46.098Z</time>
      </trkpt>
      <trkpt lat="45.75922" lon="6.5359">
        <ele>1659</ele>
        <time>2021-12-27T10:25:17.968Z</time>
      </trkpt>
      <trkpt lat="45.75933" lon="6.53617">
        <ele>1660</ele>
        <time>2021-12-27T10:25:44.958Z</time>
      </trkpt>
      <trkpt lat="45.7594" lon="6.53702">
        <ele>1666</ele>
        <time>2021-12-27T10:27:07.560Z</time>
      </trkpt>
      <trkpt lat="45.7595" lon="6.53732">
        <ele>1669</ele>
        <time>2021-12-27T10:27:39.074Z</time>
      </trkpt>
      <trkpt lat="45.75947" lon="6.53765">
        <ele>1671</ele>
        <time>2021-12-27T10:28:07.643Z</time>
      </trkpt>
      <trkpt lat="45.75925" lon="6.53863">
        <ele>1675</ele>
        <time>2021-12-27T10:29:36.020Z</time>
      </trkpt>
      <trkpt lat="45.75917" lon="6.53917">
        <ele>1677</ele>
        <time>2021-12-27T10:30:25.163Z</time>
      </trkpt>
      <trkpt lat="45.75921" lon="6.54028">
        <ele>1685</ele>
        <time>2021-12-27T10:32:18.541Z</time>
      </trkpt>
      <trkpt lat="45.75933" lon="6.54074">
        <ele>1691</ele>
        <time>2021-12-27T10:33:11.420Z</time>
      </trkpt>
      <trkpt lat="45.75942" lon="6.54126">
        <ele>1695</ele>
        <time>2021-12-27T10:34:00.056Z</time>
      </trkpt>
      <trkpt lat="45.75935" lon="6.54182">
        <ele>1698</ele>
        <time>2021-12-27T10:34:49.788Z</time>
      </trkpt>
      <trkpt lat="45.75941" lon="6.54249">
        <ele>1701</ele>
        <time>2021-12-27T10:35:48.802Z</time>
      </trkpt>
      <trkpt lat="45.75937" lon="6.54301">
        <ele>1704</ele>
        <time>2021-12-27T10:36:42.963Z</time>
      </trkpt>
      <trkpt lat="45.75962" lon="6.54499">
        <ele>1724</ele>
        <time>2021-12-27T10:40:32.349Z</time>
      </trkpt>
      <trkpt lat="45.75965" lon="6.54538">
        <ele>1730</ele>
        <time>2021-12-27T10:41:17.955Z</time>
      </trkpt>
      <trkpt lat="45.75954" lon="6.54664">
        <ele>1743</ele>
        <time>2021-12-27T10:43:41.782Z</time>
      </trkpt>
      <trkpt lat="45.7596" lon="6.54733">
        <ele>1751</ele>
        <time>2021-12-27T10:44:51.309Z</time>
      </trkpt>
      <trkpt lat="45.76001" lon="6.54852">
        <ele>1760</ele>
        <time>2021-12-27T10:46:52.606Z</time>
      </trkpt>
      <trkpt lat="45.76012" lon="6.54912">
        <ele>1764</ele>
        <time>2021-12-27T10:47:49.761Z</time>
      </trkpt>
      <trkpt lat="45.76017" lon="6.54963">
        <ele>1768</ele>
        <time>2021-12-27T10:48:40.039Z</time>
      </trkpt>
      <trkpt lat="45.76031" lon="6.5505">
        <ele>1775</ele>
        <time>2021-12-27T10:50:02.767Z</time>
      </trkpt>
      <trkpt lat="45.76071" lon="6.55129">
        <ele>1781</ele>
        <time>2021-12-27T10:51:28.751Z</time>
      </trkpt>
      <trkpt lat="45.76079" lon="6.55192">
        <ele>1784</ele>
        <time>2021-12-27T10:52:22.902Z</time>
      </trkpt>
      <trkpt lat="45.76074" lon="6.55213">
        <ele>1784</ele>
        <time>2021-12-27T10:52:40.176Z</time>
      </trkpt>
      <trkpt lat="45.76067" lon="6.55228">
        <ele>1784</ele>
        <time>2021-12-27T10:52:55.088Z</time>
      </trkpt>
      <trkpt lat="45.76049" lon="6.55239">
        <ele>1784</ele>
        <time>2021-12-27T10:53:16.475Z</time>
      </trkpt>
      <trkpt lat="45.76056" lon="6.55254">
        <ele>1783</ele>
        <time>2021-12-27T10:53:30.358Z</time>
      </trkpt>
      <trkpt lat="45.76057" lon="6.55282">
        <ele>1783</ele>
        <time>2021-12-27T10:53:51.975Z</time>
      </trkpt>
      <trkpt lat="45.76061" lon="6.55255">
        <ele>1783</ele>
        <time>2021-12-27T10:54:13.440Z</time>
      </trkpt>
      <trkpt lat="45.76074" lon="6.5524">
        <ele>1783</ele>
        <time>2021-12-27T10:54:32.750Z</time>
      </trkpt>
      <trkpt lat="45.76076" lon="6.55222">
        <ele>1783</ele>
        <time>2021-12-27T10:54:47.564Z</time>
      </trkpt>
      <trkpt lat="45.76101" lon="6.5515">
        <ele>1785</ele>
        <time>2021-12-27T10:55:52.783Z</time>
      </trkpt>
      <trkpt lat="45.76125" lon="6.551">
        <ele>1786</ele>
        <time>2021-12-27T10:56:44.893Z</time>
      </trkpt>
      <trkpt lat="45.7617" lon="6.55061">
        <ele>1790</ele>
        <time>2021-12-27T10:57:52.803Z</time>
      </trkpt>
      <trkpt lat="45.76232" lon="6.55021">
        <ele>1797</ele>
        <time>2021-12-27T10:59:17.660Z</time>
      </trkpt>
      <trkpt lat="45.76333" lon="6.54923">
        <ele>1803</ele>
        <time>2021-12-27T11:01:46.010Z</time>
      </trkpt>
      <trkpt lat="45.76358" lon="6.5489">
        <ele>1805</ele>
        <time>2021-12-27T11:02:28.628Z</time>
      </trkpt>
      <trkpt lat="45.76386" lon="6.54891">
        <ele>1807</ele>
        <time>2021-12-27T11:03:03.158Z</time>
      </trkpt>
      <trkpt lat="45.76423" lon="6.54881">
        <ele>1810</ele>
        <time>2021-12-27T11:03:56.033Z</time>
      </trkpt>
      <trkpt lat="45.76442" lon="6.5489">
        <ele>1812</ele>
        <time>2021-12-27T11:04:23.396Z</time>
      </trkpt>
      <trkpt lat="45.76494" lon="6.54904">
        <ele>1819</ele>
        <time>2021-12-27T11:05:31.361Z</time>
      </trkpt>
      <trkpt lat="45.76543" lon="6.54841">
        <ele>1823</ele>
        <time>2021-12-27T11:06:53.604Z</time>
      </trkpt>
      <trkpt lat="45.76576" lon="6.54855">
        <ele>1826</ele>
        <time>2021-12-27T11:07:44.014Z</time>
      </trkpt>
      <trkpt lat="45.76622" lon="6.54849">
        <ele>1833</ele>
        <time>2021-12-27T11:08:47.529Z</time>
      </trkpt>
      <trkpt lat="45.76673" lon="6.54801">
        <ele>1838</ele>
        <time>2021-12-27T11:10:04.654Z</time>
      </trkpt>
      <trkpt lat="45.76714" lon="6.54775">
        <ele>1841</ele>
        <time>2021-12-27T11:11:04.683Z</time>
      </trkpt>
      <trkpt lat="45.76737" lon="6.54773">
        <ele>1845</ele>
        <time>2021-12-27T11:11:47.271Z</time>
      </trkpt>
      <trkpt lat="45.76761" lon="6.54749">
        <ele>1851</ele>
        <time>2021-12-27T11:12:41.949Z</time>
      </trkpt>
      <trkpt lat="45.76796" lon="6.54739">
        <ele>1858</ele>
        <time>2021-12-27T11:13:39.946Z</time>
      </trkpt>
      <trkpt lat="45.76801" lon="6.54728">
        <ele>1860</ele>
        <time>2021-12-27T11:13:55.765Z</time>
      </trkpt>
      <trkpt lat="45.7681" lon="6.54647">
        <ele>1867</ele>
        <time>2021-12-27T11:15:18.140Z</time>
      </trkpt>
      <trkpt lat="45.76821" lon="6.54613">
        <ele>1870</ele>
        <time>2021-12-27T11:15:57.200Z</time>
      </trkpt>
      <trkpt lat="45.76829" lon="6.54613">
        <ele>1872</ele>
        <time>2021-12-27T11:16:09.998Z</time>
      </trkpt>
      <trkpt lat="45.76839" lon="6.54619">
        <ele>1873</ele>
        <time>2021-12-27T11:16:26.757Z</time>
      </trkpt>
      <trkpt lat="45.76867" lon="6.54655">
        <ele>1878</ele>
        <time>2021-12-27T11:17:13.699Z</time>
      </trkpt>
      <trkpt lat="45.76918" lon="6.5468">
        <ele>1879</ele>
        <time>2021-12-27T11:18:14.354Z</time>
      </trkpt>
      <trkpt lat="45.76933" lon="6.54718">
        <ele>1879</ele>
        <time>2021-12-27T11:18:49.660Z</time>
      </trkpt>
      <trkpt lat="45.76941" lon="6.54717">
        <ele>1880</ele>
        <time>2021-12-27T11:18:59.040Z</time>
      </trkpt>
      <trkpt lat="45.76962" lon="6.54729">
        <ele>1880</ele>
        <time>2021-12-27T11:19:24.769Z</time>
      </trkpt>
      <trkpt lat="45.76972" lon="6.54743">
        <ele>1881</ele>
        <time>2021-12-27T11:19:39.937Z</time>
      </trkpt>
      <trkpt lat="45.76979" lon="6.5474">
        <ele>1881</ele>
        <time>2021-12-27T11:19:49.125Z</time>
      </trkpt>
      <trkpt lat="45.77008" lon="6.54697">
        <ele>1881</ele>
        <time>2021-12-27T11:20:36.143Z</time>
      </trkpt>
      <trkpt lat="45.76997" lon="6.54686">
        <ele>1880</ele>
        <time>2021-12-27T11:20:51.738Z</time>
      </trkpt>
      <trkpt lat="45.76995" lon="6.54671">
        <ele>1879</ele>
        <time>2021-12-27T11:21:03.630Z</time>
      </trkpt>
      <trkpt lat="45.77045" lon="6.54651">
        <ele>1875</ele>
        <time>2021-12-27T11:22:03.664Z</time>
      </trkpt>
      <trkpt lat="45.77041" lon="6.54645">
        <ele>1874</ele>
        <time>2021-12-27T11:22:10.061Z</time>
      </trkpt>
      <trkpt lat="45.77" lon="6.54636">
        <ele>1870</ele>
        <time>2021-12-27T11:23:09.110Z</time>
      </trkpt>
      <trkpt lat="45.77061" lon="6.54603">
        <ele>1854</ele>
        <time>2021-12-27T11:24:50.597Z</time>
      </trkpt>
      <trkpt lat="45.77108" lon="6.54606">
        <ele>1845</ele>
        <time>2021-12-27T11:25:46.583Z</time>
      </trkpt>
      <trkpt lat="45.77123" lon="6.54584">
        <ele>1844</ele>
        <time>2021-12-27T11:26:11.517Z</time>
      </trkpt>
      <trkpt lat="45.77128" lon="6.54525">
        <ele>1843</ele>
        <time>2021-12-27T11:27:01.557Z</time>
      </trkpt>
      <trkpt lat="45.77139" lon="6.54501">
        <ele>1840</ele>
        <time>2021-12-27T11:27:26.908Z</time>
      </trkpt>
      <trkpt lat="45.77156" lon="6.54493">
        <ele>1835</ele>
        <time>2021-12-27T11:27:56.440Z</time>
      </trkpt>
      <trkpt lat="45.77139" lon="6.54468">
        <ele>1828</ele>
        <time>2021-12-27T11:28:43.918Z</time>
      </trkpt>
      <trkpt lat="45.77115" lon="6.5441">
        <ele>1813</ele>
        <time>2021-12-27T11:30:03.975Z</time>
      </trkpt>
      <trkpt lat="45.77148" lon="6.54364">
        <ele>1804</ele>
        <time>2021-12-27T11:31:00.945Z</time>
      </trkpt>
      <trkpt lat="45.77179" lon="6.54348">
        <ele>1803</ele>
        <time>2021-12-27T11:31:36.938Z</time>
      </trkpt>
      <trkpt lat="45.77276" lon="6.54352">
        <ele>1799</ele>
        <time>2021-12-27T11:33:31.319Z</time>
      </trkpt>
      <trkpt lat="45.77322" lon="6.54345">
        <ele>1789</ele>
        <time>2021-12-27T11:34:33.438Z</time>
      </trkpt>
      <trkpt lat="45.77362" lon="6.54319">
        <ele>1784</ele>
        <time>2021-12-27T11:35:32.336Z</time>
      </trkpt>
      <trkpt lat="45.77437" lon="6.54227">
        <ele>1764</ele>
        <time>2021-12-27T11:37:55.635Z</time>
      </trkpt>
      <trkpt lat="45.77485" lon="6.54176">
        <ele>1753</ele>
        <time>2021-12-27T11:39:12.505Z</time>
      </trkpt>
      <trkpt lat="45.77522" lon="6.54119">
        <ele>1746</ele>
        <time>2021-12-27T11:40:18.325Z</time>
      </trkpt>
      <trkpt lat="45.77526" lon="6.54073">
        <ele>1743</ele>
        <time>2021-12-27T11:40:55.150Z</time>
      </trkpt>
      <trkpt lat="45.77543" lon="6.54041">
        <ele>1741</ele>
        <time>2021-12-27T11:41:28.281Z</time>
      </trkpt>
      <trkpt lat="45.7756" lon="6.54026">
        <ele>1739</ele>
        <time>2021-12-27T11:41:51.642Z</time>
      </trkpt>
      <trkpt lat="45.77542" lon="6.54024">
        <ele>1737</ele>
        <time>2021-12-27T11:42:12.924Z</time>
      </trkpt>
      <trkpt lat="45.77519" lon="6.54034">
        <ele>1735</ele>
        <time>2021-12-27T11:42:40.338Z</time>
      </trkpt>
      <trkpt lat="45.77481" lon="6.54077">
        <ele>1731</ele>
        <time>2021-12-27T11:43:35.460Z</time>
      </trkpt>
      <trkpt lat="45.77406" lon="6.54096">
        <ele>1726</ele>
        <time>2021-12-27T11:45:00.227Z</time>
      </trkpt>
      <trkpt lat="45.77347" lon="6.54075">
        <ele>1723</ele>
        <time>2021-12-27T11:46:08.185Z</time>
      </trkpt>
      <trkpt lat="45.77334" lon="6.54079">
        <ele>1723</ele>
        <time>2021-12-27T11:46:22.828Z</time>
      </trkpt>
      <trkpt lat="45.77313" lon="6.54099">
        <ele>1724</ele>
        <time>2021-12-27T11:46:54.366Z</time>
      </trkpt>
      <trkpt lat="45.77293" lon="6.54099">
        <ele>1726</ele>
        <time>2021-12-27T11:47:20.354Z</time>
      </trkpt>
      <trkpt lat="45.77176" lon="6.54055">
        <ele>1736</ele>
        <time>2021-12-27T11:49:52.222Z</time>
      </trkpt>
      <trkpt lat="45.77135" lon="6.54078">
        <ele>1738</ele>
        <time>2021-12-27T11:51:15.079Z</time>
      </trkpt>
      <trkpt lat="45.7713" lon="6.54108">
        <ele>1744</ele>
        <time>2021-12-27T11:51:55.902Z</time>
      </trkpt>
      <trkpt lat="45.77117" lon="6.54144">
        <ele>1755</ele>
        <time>2021-12-27T11:53:34.965Z</time>
      </trkpt>
      <trkpt lat="45.77123" lon="6.54211">
        <ele>1773</ele>
        <time>2021-12-27T11:55:18.603Z</time>
      </trkpt>
      <trkpt lat="45.77117" lon="6.54221">
        <ele>1775</ele>
        <time>2021-12-27T11:55:38.073Z</time>
      </trkpt>
      <trkpt lat="45.77108" lon="6.54224">
        <ele>1776</ele>
        <time>2021-12-27T11:55:59.739Z</time>
      </trkpt>
      <trkpt lat="45.77087" lon="6.5424">
        <ele>1777</ele>
        <time>2021-12-27T11:56:26.366Z</time>
      </trkpt>
      <trkpt lat="45.77061" lon="6.54286">
        <ele>1776</ele>
        <time>2021-12-27T11:57:12.235Z</time>
      </trkpt>
      <trkpt lat="45.77017" lon="6.54317">
        <ele>1774</ele>
        <time>2021-12-27T11:58:07.051Z</time>
      </trkpt>
      <trkpt lat="45.76998" lon="6.54315">
        <ele>1773</ele>
        <time>2021-12-27T11:58:28.509Z</time>
      </trkpt>
      <trkpt lat="45.76971" lon="6.54264">
        <ele>1769</ele>
        <time>2021-12-27T11:59:22.044Z</time>
      </trkpt>
      <trkpt lat="45.76971" lon="6.54221">
        <ele>1765</ele>
        <time>2021-12-27T11:59:59.161Z</time>
      </trkpt>
      <trkpt lat="45.76989" lon="6.54159">
        <ele>1758</ele>
        <time>2021-12-27T12:00:56.945Z</time>
      </trkpt>
      <trkpt lat="45.77002" lon="6.5407">
        <ele>1750</ele>
        <time>2021-12-27T12:02:11.248Z</time>
      </trkpt>
      <trkpt lat="45.77007" lon="6.54003">
        <ele>1748</ele>
        <time>2021-12-27T12:03:11.946Z</time>
      </trkpt>
      <trkpt lat="45.76981" lon="6.53957">
        <ele>1758</ele>
        <time>2021-12-27T12:04:55.376Z</time>
      </trkpt>
      <trkpt lat="45.76972" lon="6.53925">
        <ele>1766</ele>
        <time>2021-12-27T12:05:53.518Z</time>
      </trkpt>
      <trkpt lat="45.76955" lon="6.53894">
        <ele>1772</ele>
        <time>2021-12-27T12:06:28.366Z</time>
      </trkpt>
      <trkpt lat="45.76957" lon="6.53864">
        <ele>1773</ele>
        <time>2021-12-27T12:06:51.893Z</time>
      </trkpt>
      <trkpt lat="45.76946" lon="6.53841">
        <ele>1771</ele>
        <time>2021-12-27T12:07:14.620Z</time>
      </trkpt>
      <trkpt lat="45.76901" lon="6.53782">
        <ele>1764</ele>
        <time>2021-12-27T12:08:25.592Z</time>
      </trkpt>
      <trkpt lat="45.76875" lon="6.53775">
        <ele>1763</ele>
        <time>2021-12-27T12:08:55.360Z</time>
      </trkpt>
      <trkpt lat="45.76828" lon="6.53751">
        <ele>1760</ele>
        <time>2021-12-27T12:09:52.246Z</time>
      </trkpt>
      <trkpt lat="45.76808" lon="6.53757">
        <ele>1759</ele>
        <time>2021-12-27T12:10:16.357Z</time>
      </trkpt>
      <trkpt lat="45.76768" lon="6.53746">
        <ele>1754</ele>
        <time>2021-12-27T12:11:08.252Z</time>
      </trkpt>
      <trkpt lat="45.76713" lon="6.53712">
        <ele>1743</ele>
        <time>2021-12-27T12:12:33.178Z</time>
      </trkpt>
      <trkpt lat="45.7666" lon="6.53745">
        <ele>1732</ele>
        <time>2021-12-27T12:13:47.723Z</time>
      </trkpt>
      <trkpt lat="45.76637" lon="6.5381">
        <ele>1726</ele>
        <time>2021-12-27T12:14:45.811Z</time>
      </trkpt>
      <trkpt lat="45.76617" lon="6.53838">
        <ele>1726</ele>
        <time>2021-12-27T12:15:20.789Z</time>
      </trkpt>
      <trkpt lat="45.76599" lon="6.53836">
        <ele>1728</ele>
        <time>2021-12-27T12:15:43.080Z</time>
      </trkpt>
      <trkpt lat="45.76596" lon="6.53862">
        <ele>1730</ele>
        <time>2021-12-27T12:16:11.432Z</time>
      </trkpt>
      <trkpt lat="45.7659" lon="6.53867">
        <ele>1731</ele>
        <time>2021-12-27T12:16:22.871Z</time>
      </trkpt>
      <trkpt lat="45.76569" lon="6.53839">
        <ele>1736</ele>
        <time>2021-12-27T12:16:55.127Z</time>
      </trkpt>
      <trkpt lat="45.76518" lon="6.53746">
        <ele>1732</ele>
        <time>2021-12-27T12:18:37.022Z</time>
      </trkpt>
      <trkpt lat="45.76499" lon="6.53695">
        <ele>1720</ele>
        <time>2021-12-27T12:19:35.053Z</time>
      </trkpt>
      <trkpt lat="45.76432" lon="6.53645">
        <ele>1709</ele>
        <time>2021-12-27T12:21:17.681Z</time>
      </trkpt>
      <trkpt lat="45.76403" lon="6.53616">
        <ele>1701</ele>
        <time>2021-12-27T12:22:21.094Z</time>
      </trkpt>
      <trkpt lat="45.76349" lon="6.5359">
        <ele>1683</ele>
        <time>2021-12-27T12:23:52.029Z</time>
      </trkpt>
      <trkpt lat="45.76327" lon="6.5361">
        <ele>1682</ele>
        <time>2021-12-27T12:24:20.305Z</time>
      </trkpt>
      <trkpt lat="45.76307" lon="6.53646">
        <ele>1683</ele>
        <time>2021-12-27T12:25:00.200Z</time>
      </trkpt>
      <trkpt lat="45.76279" lon="6.53662">
        <ele>1686</ele>
        <time>2021-12-27T12:25:35.348Z</time>
      </trkpt>
      <trkpt lat="45.7628" lon="6.5361">
        <ele>1685</ele>
        <time>2021-12-27T12:26:15.605Z</time>
      </trkpt>
      <trkpt lat="45.76272" lon="6.53567">
        <ele>1683</ele>
        <time>2021-12-27T12:26:51.744Z</time>
      </trkpt>
      <trkpt lat="45.76244" lon="6.5351">
        <ele>1679</ele>
        <time>2021-12-27T12:27:46.819Z</time>
      </trkpt>
      <trkpt lat="45.76224" lon="6.53503">
        <ele>1677</ele>
        <time>2021-12-27T12:28:10.755Z</time>
      </trkpt>
      <trkpt lat="45.76186" lon="6.53513">
        <ele>1675</ele>
        <time>2021-12-27T12:28:53.505Z</time>
      </trkpt>
      <trkpt lat="45.76133" lon="6.53514">
        <ele>1672</ele>
        <time>2021-12-27T12:29:53.574Z</time>
      </trkpt>
      <trkpt lat="45.76124" lon="6.53493">
        <ele>1670</ele>
        <time>2021-12-27T12:30:13.301Z</time>
      </trkpt>
      <trkpt lat="45.76115" lon="6.53489">
        <ele>1669</ele>
        <time>2021-12-27T12:30:24.149Z</time>
      </trkpt>
      <trkpt lat="45.76012" lon="6.53499">
        <ele>1661</ele>
        <time>2021-12-27T12:32:21.262Z</time>
      </trkpt>
      <trkpt lat="45.76003" lon="6.53495">
        <ele>1661</ele>
        <time>2021-12-27T12:32:32.201Z</time>
      </trkpt>
      <trkpt lat="45.75992" lon="6.53478">
        <ele>1660</ele>
        <time>2021-12-27T12:32:50.497Z</time>
      </trkpt>
      <trkpt lat="45.7599" lon="6.53462">
        <ele>1659</ele>
        <time>2021-12-27T12:33:03.122Z</time>
      </trkpt>
      <trkpt lat="45.75996" lon="6.5343">
        <ele>1658</ele>
        <time>2021-12-27T12:33:28.595Z</time>
      </trkpt>
      <trkpt lat="45.76047" lon="6.53391">
        <ele>1658</ele>
        <time>2021-12-27T12:34:33.806Z</time>
      </trkpt>
    </trkseg>
  </trk>
</gpx>